Time;durP1;ratioP1;P1;durP2;ratioP2;P2;SDS_P1;SDS_P2;PMS_P1;PMS_P2;Temp;Humidity;BMP_temperature;BMP_pressure;BME280_temperature;BME280_humidity;BME280_pressure;Samples;Min_cycle;Max_cycle;Signal;HPM_P1;HPM_P2
2022/01/30 00:01:49;;;;;;;7.85;1.27;;;7.60;83.00;;;;;;4994425;28;20046;-87
2022/01/30 00:04:16;;;;;;;12.70;1.73;;;7.60;83.20;;;;;;4994442;28;20050;-88
2022/01/30 00:06:43;;;;;;;6.57;1.15;;;7.60;83.20;;;;;;4961875;28;20122;-90
2022/01/30 00:09:21;;;;;;;8.43;1.30;;;7.60;83.10;;;;;;4993814;28;20411;-90
2022/01/30 00:11:54;;;;;;;7.72;1.08;;;7.60;83.10;;;;;;4979763;28;20039;-92
2022/01/30 00:14:34;;;;;;;9.77;1.95;;;7.60;83.30;;;;;;4993595;28;20129;-93
2022/01/30 00:17:12;;;;;;;8.23;1.30;;;7.50;83.30;;;;;;4978432;28;20101;-89
2022/01/30 00:19:45;;;;;;;14.07;2.33;;;7.50;83.40;;;;;;4977538;28;20059;-88
2022/01/30 00:22:33;;;;;;;7.78;2.03;;;7.50;83.30;;;;;;4977723;28;20140;-88
2022/01/30 00:25:14;;;;;;;15.90;1.92;;;7.50;83.30;;;;;;4963843;28;20054;-89
2022/01/30 00:28:02;;;;;;;11.63;2.72;;;7.40;83.10;;;;;;4993912;28;20473;-90
2022/01/30 00:30:34;;;;;;;13.98;2.13;;;7.40;82.90;;;;;;4993542;28;20112;-87
2022/01/30 00:33:02;;;;;;;8.68;2.03;;;7.40;83.10;;;;;;4963295;28;20050;-92
2022/01/30 00:35:35;;;;;;;13.70;2.08;;;7.40;83.30;;;;;;4995461;28;20050;-89
2022/01/30 00:38:15;;;;;;;12.15;1.80;;;7.40;83.20;;;;;;4965871;28;20042;-92
2022/01/30 00:40:43;;;;;;;10.60;2.00;;;7.30;83.10;;;;;;4966013;28;20045;-89
2022/01/30 00:43:10;;;;;;;8.02;1.58;;;7.30;83.30;;;;;;4980459;28;20049;-88
2022/01/30 00:45:38;;;;;;;10.32;1.90;;;7.30;83.50;;;;;;4964763;28;20540;-88
2022/01/30 00:48:06;;;;;;;16.50;2.33;;;7.30;83.50;;;;;;4980419;28;20073;-91
2022/01/30 00:50:34;;;;;;;11.73;1.75;;;7.30;83.30;;;;;;4967209;28;20046;-87
2022/01/30 00:53:02;;;;;;;8.68;1.27;;;7.30;83.50;;;;;;4984490;28;20046;-87
2022/01/30 00:55:30;;;;;;;10.73;2.08;;;7.30;83.60;;;;;;4984311;28;20042;-83
2022/01/30 00:57:58;;;;;;;7.63;1.90;;;7.30;83.40;;;;;;4984399;28;20124;-87
2022/01/30 01:00:27;;;;;;;10.18;1.77;;;7.20;83.60;;;;;;4993810;28;20127;-89
2022/01/30 01:02:55;;;;;;;12.75;2.38;;;7.20;83.70;;;;;;5009582;28;20567;-86
2022/01/30 01:05:22;;;;;;;7.93;1.23;;;7.20;83.60;;;;;;4999947;28;20459;-87
2022/01/30 01:07:52;;;;;;;9.95;1.58;;;7.20;83.80;;;;;;5002792;28;20087;-89
2022/01/30 01:10:46;;;;;;;9.18;1.60;;;7.20;83.80;;;;;;5020024;28;20049;-90
2022/01/30 01:23:50;;;;;;;12.07;1.85;;;7.40;83.30;;;;;;5020371;28;20053;-89
2022/01/30 01:26:22;;;;;;;9.57;1.52;;;7.40;83.20;;;;;;5003248;28;20080;-89
2022/01/30 01:28:50;;;;;;;;;;;7.40;83.00;;;;;;4972620;28;20049;-90
2022/01/30 01:31:20;;;;;;;13.88;1.60;;;7.50;82.80;;;;;;5019622;28;20349;-89
2022/01/30 01:34:04;;;;;;;6.57;1.00;;;7.50;82.70;;;;;;5003668;28;20049;-88
2022/01/30 01:36:32;;;;;;;8.50;1.33;;;7.40;82.10;;;;;;5001040;28;20157;-88
2022/01/30 01:38:59;;;;;;;8.63;1.63;;;7.50;82.20;;;;;;4984036;28;20054;-88
2022/01/30 01:41:29;;;;;;;6.60;0.93;;;7.50;81.70;;;;;;5015882;28;20458;-88
2022/01/30 01:44:24;;;;;;;8.02;1.52;;;7.60;81.50;;;;;;5000384;28;20061;-88
2022/01/30 01:47:11;;;;;;;8.02;1.90;;;7.60;81.40;;;;;;5015842;28;20462;-89
2022/01/30 01:49:43;;;;;;;9.38;1.35;;;7.50;81.40;;;;;;5000629;28;20042;-89
2022/01/30 01:54:49;;;;;;;7.28;0.93;;;7.40;81.70;;;;;;5015683;28;20042;-88
2022/01/30 01:57:16;;;;;;;7.45;1.70;;;7.30;82.00;;;;;;4999472;28;20038;-89
2022/01/30 01:59:49;;;;;;;9.52;1.50;;;7.20;82.30;;;;;;5015238;28;20100;-89
2022/01/30 02:02:37;;;;;;;8.35;1.40;;;7.20;82.50;;;;;;5001347;28;20057;-89
2022/01/30 02:05:06;;;;;;;4.60;0.93;;;7.10;82.60;;;;;;4999049;28;20041;-89
2022/01/30 02:08:03;;;;;;;15.00;1.70;;;7.10;82.80;;;;;;4983139;28;20552;-90
2022/01/30 02:10:32;;;;;;;6.57;1.05;;;7.10;83.00;;;;;;4988773;28;20045;-88
2022/01/30 02:13:15;;;;;;;10.20;1.70;;;7.00;83.20;;;;;;5015074;28;20056;-90
2022/01/30 02:24:11;;;;;;;7.75;1.10;;;7.20;83.40;;;;;;5016902;28;20046;-88
2022/01/30 02:26:45;;;;;;;7.65;1.50;;;7.20;83.50;;;;;;5018026;28;20085;-89
2022/01/30 02:29:12;;;;;;;6.40;0.80;;;7.10;83.60;;;;;;5020206;28;20078;-89
2022/01/30 02:31:41;;;;;;;9.60;1.33;;;7.20;83.60;;;;;;5006959;28;20046;-89
2022/01/30 02:34:09;;;;;;;8.85;1.25;;;7.20;83.40;;;;;;5001360;28;20046;-88
2022/01/30 02:36:48;;;;;;;6.07;1.33;;;7.20;83.50;;;;;;4967660;28;20053;-88
2022/01/30 02:39:17;;;;;;;6.75;0.93;;;7.10;83.60;;;;;;5015831;28;20042;-88
2022/01/30 02:41:45;;;;;;;11.30;1.38;;;7.10;83.60;;;;;;5015514;28;20042;-88
2022/01/30 02:44:18;;;;;;;5.50;0.73;;;7.00;83.40;;;;;;4982967;28;20050;-89
2022/01/30 02:46:51;;;;;;;4.18;0.60;;;7.00;83.70;;;;;;5015510;28;20073;-90
2022/01/30 02:52:01;;;;;;;3.80;0.50;;;6.90;84.10;;;;;;5015086;28;20441;-89
2022/01/30 02:54:30;;;;;;;3.95;0.57;;;6.80;84.20;;;;;;5015643;28;20042;-90
2022/01/30 02:56:58;;;;;;;5.57;0.60;;;6.80;84.00;;;;;;4998793;28;20521;-88
2022/01/30 02:59:26;;;;;;;4.45;0.50;;;6.80;84.00;;;;;;4999237;28;20379;-89
2022/01/30 03:01:54;;;;;;;6.38;0.80;;;6.70;84.10;;;;;;5015757;28;20132;-89
2022/01/30 03:04:21;;;;;;;3.05;0.50;;;6.70;84.00;;;;;;5014711;28;20045;-89
2022/01/30 03:06:51;;;;;;;5.70;0.73;;;6.70;84.00;;;;;;4982294;28;20096;-88
2022/01/30 03:09:37;;;;;;;4.97;0.50;;;6.70;84.10;;;;;;5015246;28;20061;-89
2022/01/30 03:12:06;;;;;;;6.03;0.75;;;6.70;84.10;;;;;;4998819;28;20113;-88
2022/01/30 03:14:36;;;;;;;5.20;0.60;;;6.70;84.30;;;;;;4982926;28;20103;-89
2022/01/30 03:17:04;;;;;;;2.45;0.47;;;6.60;84.20;;;;;;4982938;28;20046;-89
2022/01/30 03:19:31;;;;;;;7.50;0.90;;;6.60;84.30;;;;;;4966750;28;20438;-88
2022/01/30 03:21:58;;;;;;;6.18;0.70;;;6.60;84.40;;;;;;5000063;28;20050;-88
2022/01/30 03:24:25;;;;;;;6.22;1.25;;;6.60;84.40;;;;;;4999262;28;20482;-87
2022/01/30 03:26:58;;;;;;;2.50;0.63;;;6.60;84.30;;;;;;4999423;28;20050;-88
2022/01/30 03:29:37;;;;;;;6.30;0.65;;;6.60;84.40;;;;;;5014726;28;20498;-89
2022/01/30 03:32:07;;;;;;;5.18;0.70;;;6.50;84.50;;;;;;4998508;28;20042;-89
2022/01/30 03:34:35;;;;;;;6.00;0.82;;;6.50;84.60;;;;;;4997748;28;20048;-89
2022/01/30 03:37:02;;;;;;;7.38;1.20;;;6.40;84.60;;;;;;4988297;28;20077;-88
2022/01/30 03:39:33;;;;;;;6.10;0.73;;;6.40;84.50;;;;;;4963210;28;20521;-90
2022/01/30 03:42:00;;;;;;;2.58;0.30;;;6.40;84.60;;;;;;4962185;28;20042;-90
2022/01/30 03:44:28;;;;;;;2.95;0.50;;;6.40;85.40;;;;;;4994129;28;20046;-89
2022/01/30 03:46:55;;;;;;;4.45;1.02;;;6.40;85.00;;;;;;4993990;28;20108;-90
2022/01/30 03:49:25;;;;;;;4.90;0.65;;;6.30;85.00;;;;;;4962321;28;20093;-90
2022/01/30 03:51:53;;;;;;;4.05;0.52;;;6.40;85.00;;;;;;4958987;28;20101;-89
2022/01/30 03:54:32;;;;;;;2.15;0.40;;;6.30;84.90;;;;;;4974370;28;20057;-89
2022/01/30 03:57:01;;;;;;;2.42;0.32;;;6.40;84.90;;;;;;4974457;28;20047;-89
2022/01/30 03:59:29;;;;;;;2.33;0.40;;;6.40;84.90;;;;;;4943097;28;20077;-89
2022/01/30 04:01:57;;;;;;;4.82;0.43;;;6.40;84.70;;;;;;4990504;28;20125;-89
2022/01/30 04:04:27;;;;;;;5.15;0.70;;;6.40;84.80;;;;;;4975143;28;20463;-89
2022/01/30 04:06:58;;;;;;;2.60;0.57;;;6.30;84.90;;;;;;4958416;28;20096;-88
2022/01/30 04:09:51;;;;;;;4.38;0.57;;;6.30;85.00;;;;;;4977952;28;20043;-88
2022/01/30 04:12:26;;;;;;;4.25;0.40;;;6.30;85.10;;;;;;4961458;28;20133;-88
2022/01/30 04:15:14;;;;;;;3.85;0.30;;;6.30;85.10;;;;;;4990726;28;20133;-88
2022/01/30 04:18:01;;;;;;;5.35;0.52;;;6.30;85.10;;;;;;4977389;28;20082;-88
2022/01/30 04:20:38;;;;;;;5.75;0.50;;;6.30;84.90;;;;;;4990157;28;20055;-90
2022/01/30 04:23:12;;;;;;;7.30;0.85;;;6.40;84.70;;;;;;4959584;28;20059;-89
2022/01/30 04:26:05;;;;;;;7.88;0.95;;;6.40;84.60;;;;;;4983295;28;20448;-88
2022/01/30 04:28:38;;;;;;;4.78;0.95;;;6.50;84.40;;;;;;4975435;28;20090;-89
2022/01/30 04:31:24;;;;;;;7.82;0.60;;;6.50;84.30;;;;;;4962753;28;20066;-89
2022/01/30 04:34:12;;;;;;;5.47;1.42;;;6.50;84.30;;;;;;4957856;28;20404;-88
2022/01/30 04:37:15;;;;;;;5.95;1.00;;;6.40;84.30;;;;;;4967749;28;20050;-89
2022/01/30 04:52:51;;;;;;;5.60;0.43;;;6.50;84.50;;;;;;4993083;28;20503;-81
2022/01/30 04:58:50;;;;;;;5.38;0.60;;;6.50;84.10;;;;;;4979796;28;20042;-81
2022/01/30 05:01:52;;;;;;;8.77;0.80;;;6.60;84.10;;;;;;4991988;28;20050;-82
2022/01/30 05:04:53;;;;;;;6.47;1.15;;;6.50;84.00;;;;;;4981049;28;20050;-82
2022/01/30 05:07:52;;;;;;;5.95;0.60;;;6.50;84.80;;;;;;4972182;28;20046;-82
2022/01/30 05:10:40;;;;;;;4.63;0.80;;;6.50;84.30;;;;;;4965221;28;20524;-82
2022/01/30 05:13:29;;;;;;;4.45;0.57;;;6.50;84.30;;;;;;4979001;28;20069;-82
2022/01/30 05:16:17;;;;;;;7.38;0.70;;;6.50;84.20;;;;;;4965695;28;20252;-81
2022/01/30 05:19:26;;;;;;;5.20;0.70;;;6.50;84.20;;;;;;4970886;28;20050;-82
2022/01/30 05:22:09;;;;;;;10.10;0.90;;;6.50;84.20;;;;;;4964052;28;20097;-81
2022/01/30 05:25:00;;;;;;;8.02;1.50;;;6.60;84.20;;;;;;4966781;28;20050;-88
2022/01/30 05:27:36;;;;;;;5.53;0.70;;;6.50;83.80;;;;;;4962577;28;20060;-88
2022/01/30 05:30:43;;;;;;;3.72;0.50;;;6.50;83.80;;;;;;4961352;28;20047;-88
2022/01/30 05:33:23;;;;;;;6.63;0.95;;;6.50;84.00;;;;;;4962477;28;20057;-88
2022/01/30 05:36:18;;;;;;;4.88;0.63;;;6.50;84.10;;;;;;4969501;28;20046;-88
2022/01/30 05:38:53;;;;;;;3.70;0.70;;;6.40;84.30;;;;;;4996664;28;20130;-88
2022/01/30 05:41:36;;;;;;;4.10;0.85;;;6.40;84.40;;;;;;4968310;28;20050;-88
2022/01/30 05:44:31;;;;;;;7.28;0.70;;;6.30;84.40;;;;;;4983962;28;20053;-89
2022/01/30 05:47:34;;;;;;;5.57;0.65;;;6.30;84.50;;;;;;4984476;28;20148;-88
2022/01/30 05:50:20;;;;;;;4.73;0.97;;;6.20;84.40;;;;;;4985201;28;20542;-88
2022/01/30 05:53:00;;;;;;;7.47;2.08;;;6.30;84.40;;;;;;4981537;28;20302;-88
2022/01/30 05:55:49;;;;;;;6.15;0.88;;;6.30;84.10;;;;;;4996169;28;20101;-87
2022/01/30 05:58:16;;;;;;;5.15;0.60;;;6.30;84.20;;;;;;4964693;28;20050;-88
2022/01/30 06:01:02;;;;;;;5.20;0.57;;;6.30;84.10;;;;;;4995969;28;20050;-89
2022/01/30 06:03:29;;;;;;;7.65;0.82;;;6.40;84.20;;;;;;4964464;28;20077;-88
2022/01/30 06:05:57;;;;;;;5.90;0.90;;;6.40;84.10;;;;;;4964024;28;20047;-88
2022/01/30 06:09:18;;;;;;;6.20;1.05;;;6.50;84.00;;;;;;4980004;28;20150;-89
2022/01/30 06:11:15;;;;;;;5.13;0.70;;;6.50;83.90;;;;;;5004768;28;20513;-89
2022/01/30 06:13:42;;;;;;;4.50;1.10;;;6.60;83.90;;;;;;4964032;28;20105;-89
2022/01/30 06:16:09;;;;;;;3.75;0.85;;;6.60;83.90;;;;;;4963698;28;20530;-89
2022/01/30 06:18:37;;;;;;;5.43;0.60;;;6.60;83.80;;;;;;4947986;28;20050;-88
2022/01/30 06:21:39;;;;;;;6.57;0.65;;;6.60;83.90;;;;;;4963832;28;20054;-88
2022/01/30 06:24:32;;;;;;;7.53;1.00;;;6.50;84.10;;;;;;4994890;28;20047;-88
2022/01/30 06:27:17;;;;;;;6.95;0.77;;;6.50;84.10;;;;;;4982013;28;20184;-87
2022/01/30 06:30:11;;;;;;;;;;;6.40;84.30;;;;;;4968571;28;20051;-88
2022/01/30 06:32:56;;;;;;;9.98;2.85;;;6.40;84.60;;;;;;4996634;28;20385;-89
2022/01/30 06:35:42;;;;;;;8.90;2.75;;;6.30;84.60;;;;;;4999726;28;20056;-88
2022/01/30 06:38:23;;;;;;;14.27;1.85;;;6.30;84.60;;;;;;4971080;28;20050;-89
2022/01/30 06:41:29;;;;;;;10.05;2.00;;;6.30;84.80;;;;;;4995832;28;20050;-87
2022/01/30 06:44:22;;;;;;;7.18;1.73;;;6.20;84.90;;;;;;4975684;28;20054;-88
2022/01/30 06:46:55;;;;;;;4.65;1.02;;;6.20;85.00;;;;;;4984568;28;20081;-89
2022/01/30 06:49:29;;;;;;;9.07;1.50;;;6.20;85.20;;;;;;4983621;28;20042;-80
2022/01/30 06:52:22;;;;;;;8.10;2.10;;;6.10;85.40;;;;;;4974035;28;20061;-81
2022/01/30 06:55:18;;;;;;;8.45;1.45;;;6.10;85.50;;;;;;4978417;28;20058;-82
2022/01/30 06:58:12;;;;;;;13.90;2.05;;;6.00;85.50;;;;;;4973360;28;20083;-82
2022/01/30 07:00:51;;;;;;;9.82;1.17;;;6.00;85.60;;;;;;4984263;28;20073;-83
2022/01/30 07:03:50;;;;;;;9.02;1.40;;;6.00;85.60;;;;;;4961190;28;20063;-81
2022/01/30 07:06:26;;;;;;;5.85;1.20;;;6.00;85.70;;;;;;4967611;28;20054;-82
2022/01/30 07:08:53;;;;;;;7.13;0.90;;;6.10;85.90;;;;;;4981163;28;20125;-82
2022/01/30 07:11:20;;;;;;;7.45;0.95;;;6.10;85.90;;;;;;4980885;28;20145;-82
2022/01/30 07:13:47;;;;;;;7.15;1.17;;;6.10;85.90;;;;;;4997062;28;20041;-83
2022/01/30 07:16:20;;;;;;;7.20;0.98;;;6.10;85.80;;;;;;4980982;28;20088;-84
2022/01/30 07:18:56;;;;;;;8.13;1.05;;;6.20;85.90;;;;;;4981235;28;20140;-87
2022/01/30 07:21:35;;;;;;;7.30;1.33;;;6.20;85.80;;;;;;4997180;28;20049;-86
2022/01/30 07:24:14;;;;;;;8.05;1.30;;;6.20;85.80;;;;;;4982652;28;20161;-83
2022/01/30 07:26:41;;;;;;;10.40;1.77;;;6.20;85.70;;;;;;4980321;28;20108;-84
2022/01/30 07:29:10;;;;;;;8.82;1.77;;;6.10;85.80;;;;;;4981118;28;20124;-84
2022/01/30 07:31:37;;;;;;;11.95;1.42;;;6.10;85.80;;;;;;4980480;28;20046;-84
2022/01/30 07:34:05;;;;;;;11.80;1.40;;;6.10;85.90;;;;;;4996795;28;20045;-84
2022/01/30 07:36:57;;;;;;;11.55;1.20;;;6.00;85.90;;;;;;4980578;28;20482;-88
2022/01/30 07:39:31;;;;;;;7.03;1.40;;;6.00;85.90;;;;;;5014052;28;20045;-84
2022/01/30 07:42:03;;;;;;;5.78;1.20;;;6.00;86.00;;;;;;4996998;28;20296;-86
2022/01/30 07:44:46;;;;;;;11.20;1.63;;;6.00;86.10;;;;;;4985389;28;20046;-85
2022/01/30 07:47:27;;;;;;;6.63;1.13;;;6.00;86.20;;;;;;4982113;28;20046;-86
2022/01/30 07:49:56;;;;;;;6.55;0.90;;;5.90;86.20;;;;;;4964336;28;20080;-85
2022/01/30 07:52:23;;;;;;;5.18;0.93;;;6.00;86.30;;;;;;4990432;28;20041;-84
2022/01/30 07:54:50;;;;;;;6.43;1.42;;;6.00;86.30;;;;;;4984140;28;20397;-86
2022/01/30 07:57:18;;;;;;;3.60;0.80;;;6.10;86.20;;;;;;5016943;28;20508;-86
2022/01/30 07:59:46;;;;;;;4.65;0.60;;;6.10;86.10;;;;;;4999142;28;20041;-86
2022/01/30 08:02:13;;;;;;;4.10;1.13;;;6.20;86.10;;;;;;4967738;28;20453;-85
2022/01/30 08:04:46;;;;;;;6.90;0.95;;;6.20;86.00;;;;;;4999954;28;20053;-85
2022/01/30 08:07:17;;;;;;;5.90;0.65;;;6.30;85.80;;;;;;4985069;28;20041;-87
2022/01/30 08:09:50;;;;;;;;;;;6.30;85.70;;;;;;5000917;28;20593;-85
2022/01/30 08:12:45;;;;;;;6.40;1.10;;;6.30;85.80;;;;;;4991475;28;19944;-86
2022/01/30 08:15:13;;;;;;;8.13;1.40;;;6.20;85.70;;;;;;5017787;28;20051;-87
2022/01/30 08:17:53;;;;;;;5.45;0.80;;;6.20;85.70;;;;;;5001160;28;20104;-87
2022/01/30 08:20:24;;;;;;;7.50;0.80;;;6.30;85.70;;;;;;4984105;28;20791;-86
2022/01/30 08:22:54;;;;;;;5.80;0.65;;;6.40;85.70;;;;;;4985270;28;20045;-86
2022/01/30 08:25:24;;;;;;;7.75;1.63;;;6.40;85.70;;;;;;5016289;28;20041;-85
2022/01/30 08:27:53;;;;;;;3.92;0.70;;;6.40;85.60;;;;;;5000832;28;20569;-86
2022/01/30 08:30:21;;;;;;;5.70;0.90;;;6.40;85.50;;;;;;5000698;28;20076;-87
2022/01/30 08:32:50;;;;;;;4.50;0.70;;;6.40;85.50;;;;;;5000312;28;20412;-85
2022/01/30 08:35:18;;;;;;;3.80;1.05;;;6.40;85.60;;;;;;4985459;28;20056;-85
2022/01/30 08:37:45;;;;;;;2.50;0.82;;;6.40;85.80;;;;;;5016271;28;20452;-86
2022/01/30 08:40:16;;;;;;;4.72;0.82;;;6.40;85.80;;;;;;4983574;28;20075;-86
2022/01/30 08:42:44;;;;;;;9.15;1.70;;;6.50;85.50;;;;;;5015974;28;20047;-87
2022/01/30 08:45:14;;;;;;;6.05;1.00;;;6.60;85.20;;;;;;5015536;28;20103;-86
2022/01/30 08:47:43;;;;;;;6.53;1.40;;;6.60;85.10;;;;;;4999363;28;20408;-87
2022/01/30 08:50:22;;;;;;;10.27;2.00;;;6.70;84.70;;;;;;5015219;28;20057;-87
2022/01/30 08:52:55;;;;;;;9.93;1.40;;;6.70;84.50;;;;;;5011706;28;20347;-87
2022/01/30 08:55:25;;;;;;;7.97;1.50;;;6.70;84.60;;;;;;5016445;28;20627;-86
2022/01/30 08:57:52;;;;;;;6.20;0.80;;;6.70;84.80;;;;;;5016909;28;20041;-87
2022/01/30 09:00:20;;;;;;;5.35;1.10;;;6.60;84.90;;;;;;5016458;28;20045;-87
2022/01/30 09:02:47;;;;;;;6.30;1.60;;;6.60;85.10;;;;;;5016198;28;20049;-87
2022/01/30 09:05:14;;;;;;;8.77;1.65;;;6.60;85.30;;;;;;5016312;28;20056;-87
2022/01/30 09:07:42;;;;;;;6.45;1.38;;;6.60;85.20;;;;;;5015983;28;20049;-86
2022/01/30 09:10:11;;;;;;;13.77;3.28;;;6.70;85.10;;;;;;5016274;28;20120;-87
2022/01/30 09:12:51;;;;;;;12.25;2.28;;;6.70;84.80;;;;;;5020592;28;20041;-86
2022/01/30 09:15:19;;;;;;;9.60;2.15;;;6.90;84.60;;;;;;5022975;28;20553;-87
2022/01/30 09:17:47;;;;;;;8.20;1.95;;;6.90;84.30;;;;;;5022342;28;20048;-87
2022/01/30 09:20:17;;;;;;;10.63;1.45;;;7.00;84.30;;;;;;5039142;28;20473;-86
2022/01/30 09:22:53;;;;;;;12.40;1.85;;;7.10;84.20;;;;;;5006278;28;20056;-86
2022/01/30 09:25:42;;;;;;;9.65;1.63;;;7.10;83.80;;;;;;5026531;28;20045;-87
2022/01/30 09:28:15;;;;;;;10.90;2.15;;;7.10;83.80;;;;;;5039321;28;20499;-86
2022/01/30 09:30:51;;;;;;;9.18;1.30;;;7.10;83.60;;;;;;5023180;28;20571;-86
2022/01/30 09:33:28;;;;;;;5.35;1.33;;;7.00;83.60;;;;;;5006655;28;20480;-85
2022/01/30 09:36:13;;;;;;;7.28;1.13;;;7.00;83.80;;;;;;5010798;28;20079;-86
2022/01/30 09:38:42;;;;;;;7.63;1.27;;;6.90;84.00;;;;;;5019565;28;20057;-86
2022/01/30 09:41:10;;;;;;;5.97;1.10;;;6.90;84.10;;;;;;5020839;28;20484;-87
2022/01/30 09:44:01;;;;;;;10.68;1.83;;;6.90;84.20;;;;;;4996183;28;20391;-86
2022/01/30 09:46:29;;;;;;;5.82;1.92;;;6.90;84.00;;;;;;4996051;28;20054;-87
2022/01/30 09:49:01;;;;;;;9.32;2.25;;;7.00;84.00;;;;;;4980034;28;20491;-87
2022/01/30 09:51:28;;;;;;;7.00;1.33;;;7.20;83.90;;;;;;4996185;28;20043;-87
2022/01/30 09:53:56;;;;;;;6.95;1.45;;;7.30;83.60;;;;;;4996058;28;20289;-88
2022/01/30 09:56:29;;;;;;;8.02;1.42;;;7.40;83.50;;;;;;4980780;28;20100;-87
2022/01/30 09:58:58;;;;;;;5.15;1.15;;;7.40;83.40;;;;;;4996014;28;20070;-86
2022/01/30 10:01:36;;;;;;;7.53;1.55;;;7.40;83.40;;;;;;4963859;28;20492;-87
2022/01/30 10:04:08;;;;;;;13.10;2.58;;;7.40;82.60;;;;;;4980048;28;20078;-86
2022/01/30 10:07:15;;;;;;;13.45;2.40;;;7.40;82.20;;;;;;4981783;28;20050;-86
2022/01/30 10:09:48;;;;;;;11.88;2.20;;;7.50;81.80;;;;;;4977688;28;20042;-86
2022/01/30 10:12:20;;;;;;;8.95;1.75;;;7.60;82.00;;;;;;4980520;28;20042;-86
2022/01/30 10:14:59;;;;;;;10.77;2.00;;;7.70;81.80;;;;;;4996451;28;20120;-85
2022/01/30 10:17:40;;;;;;;11.55;2.10;;;7.80;81.60;;;;;;4997516;28;20147;-85
2022/01/30 10:20:39;;;;;;;18.52;2.45;;;7.90;80.70;;;;;;4996960;28;20038;-85
2022/01/30 10:23:10;;;;;;;11.18;2.85;;;7.90;80.50;;;;;;4979265;28;20084;-86
2022/01/30 10:25:51;;;;;;;13.00;2.20;;;7.90;80.50;;;;;;4995974;28;20047;-82
2022/01/30 10:28:29;;;;;;;7.68;1.45;;;8.00;80.60;;;;;;4995573;28;20073;-82
2022/01/30 10:31:13;;;;;;;6.25;0.95;;;8.00;80.80;;;;;;4995018;28;20050;-82
2022/01/30 10:33:51;;;;;;;9.80;1.27;;;8.10;80.70;;;;;;4994302;28;20042;-83
2022/01/30 10:36:27;;;;;;;13.85;1.95;;;8.10;80.10;;;;;;4995181;28;20042;-82
2022/01/30 10:39:15;;;;;;;9.50;2.65;;;8.00;79.90;;;;;;4979449;28;20093;-82
2022/01/30 10:42:04;;;;;;;6.95;1.50;;;8.10;79.50;;;;;;4980927;28;20454;-82
2022/01/30 10:44:52;;;;;;;8.77;1.27;;;8.00;79.90;;;;;;4981184;28;20050;-82
2022/01/30 10:47:22;;;;;;;6.93;1.40;;;7.90;80.00;;;;;;4962442;28;20109;-83
2022/01/30 10:49:49;;;;;;;11.05;1.60;;;7.90;79.90;;;;;;4994376;28;20140;-83
2022/01/30 10:52:17;;;;;;;7.40;1.48;;;7.80;80.00;;;;;;4995435;28;20454;-81
2022/01/30 10:54:51;;;;;;;7.97;1.45;;;7.80;79.70;;;;;;4994190;28;20081;-81
2022/01/30 10:57:20;;;;;;;6.38;1.42;;;7.80;80.00;;;;;;4978416;28;20045;-82
2022/01/30 10:59:53;;;;;;;18.45;2.35;;;7.90;80.00;;;;;;4978160;28;20076;-82
2022/01/30 11:02:38;;;;;;;10.95;2.08;;;8.00;79.30;;;;;;4994205;28;20049;-82
2022/01/30 11:05:12;;;;;;;9.77;2.03;;;8.00;79.30;;;;;;4994287;28;20046;-82
2022/01/30 11:07:40;;;;;;;15.75;2.97;;;7.90;79.00;;;;;;4994259;28;20048;-81
2022/01/30 11:10:19;;;;;;;11.27;2.38;;;7.90;78.50;;;;;;4977990;28;20077;-86
2022/01/30 11:13:24;;;;;;;9.45;1.40;;;7.90;78.80;;;;;;4994282;28;20047;-87
2022/01/30 11:16:54;;;;;;;9.97;1.70;;;7.90;78.60;;;;;;5009364;28;20495;-86
2022/01/30 11:18:39;;;;;;;9.77;1.58;;;7.90;78.80;;;;;;4993452;28;20049;-83
2022/01/30 11:21:07;;;;;;;11.65;2.10;;;7.90;78.80;;;;;;4978072;28;20057;-86
2022/01/30 11:23:36;;;;;;;10.32;1.15;;;7.90;79.00;;;;;;4993961;28;20097;-85
2022/01/30 11:26:04;;;;;;;12.80;1.85;;;7.90;79.10;;;;;;4978202;28;20329;-85
2022/01/30 11:28:35;;;;;;;13.48;2.15;;;7.90;78.40;;;;;;4977225;28;20093;-82
2022/01/30 11:31:16;;;;;;;8.02;1.08;;;7.90;78.50;;;;;;4993375;28;20449;-82
2022/01/30 11:33:44;;;;;;;5.60;1.23;;;7.90;79.00;;;;;;4993602;28;20057;-82
2022/01/30 11:36:15;;;;;;;12.85;1.15;;;8.00;79.10;;;;;;4994689;28;20043;-82
2022/01/30 11:38:43;;;;;;;5.68;0.88;;;8.00;78.80;;;;;;4977291;28;20085;-83
2022/01/30 11:41:18;;;;;;;5.97;1.05;;;8.10;78.90;;;;;;4993080;28;20074;-81
2022/01/30 11:44:17;;;;;;;7.65;1.00;;;8.20;78.50;;;;;;4993037;28;20042;-82
2022/01/30 11:46:52;;;;;;;;;;;8.30;78.30;;;;;;4994255;28;20034;-82
2022/01/30 11:49:23;;;;;;;8.50;1.38;;;8.30;77.80;;;;;;4993741;28;19996;-81
2022/01/30 11:51:52;;;;;;;13.02;1.65;;;8.30;77.90;;;;;;4993723;28;20557;-86
2022/01/30 11:54:45;;;;;;;7.40;1.42;;;8.30;77.50;;;;;;4993380;28;20042;-81
2022/01/30 11:57:21;;;;;;;9.85;1.40;;;8.30;77.30;;;;;;4992413;28;20042;-83
2022/01/30 12:00:34;;;;;;;8.68;1.88;;;8.30;76.60;;;;;;4993979;28;20035;-80
2022/01/30 12:03:21;;;;;;;9.93;1.48;;;8.30;76.70;;;;;;4957991;28;20054;-78
2022/01/30 12:05:52;;;;;;;13.80;2.15;;;8.40;76.40;;;;;;4993285;28;20116;-81
2022/01/30 12:08:41;;;;;;;11.88;1.95;;;8.40;76.40;;;;;;4977628;28;20129;-81
2022/01/30 12:11:36;;;;;;;11.05;1.90;;;8.50;76.70;;;;;;4993729;28;20042;-85
2022/01/30 12:14:05;;;;;;;6.45;1.15;;;8.50;76.10;;;;;;4977327;28;20478;-82
2022/01/30 12:16:46;;;;;;;12.35;1.80;;;8.50;76.40;;;;;;4961256;28;20049;-82
2022/01/30 12:19:16;;;;;;;11.02;1.75;;;8.60;76.20;;;;;;4978178;28;20039;-84
2022/01/30 12:21:46;;;;;;;5.43;1.23;;;8.70;76.20;;;;;;4992821;28;20046;-83
2022/01/30 12:24:25;;;;;;;9.07;2.03;;;8.70;76.10;;;;;;4944821;28;20579;-79
2022/01/30 12:27:00;;;;;;;9.45;1.95;;;8.80;75.10;;;;;;4994032;28;20038;-88
2022/01/30 12:29:34;;;;;;;11.55;1.65;;;8.80;74.70;;;;;;4993073;28;20422;-87
2022/01/30 12:32:20;;;;;;;12.70;2.38;;;8.80;75.10;;;;;;4993090;28;20070;-88
2022/01/30 12:34:57;;;;;;;8.57;2.58;;;8.70;75.00;;;;;;4993222;28;20064;-87
2022/01/30 12:37:32;;;;;;;10.88;1.98;;;8.70;75.10;;;;;;4976726;28;20055;-88
2022/01/30 12:40:13;;;;;;;12.77;1.85;;;8.70;75.40;;;;;;4976958;28;20042;-87
2022/01/30 12:42:41;;;;;;;8.57;1.10;;;8.80;74.60;;;;;;4993335;28;20046;-85
2022/01/30 12:45:10;;;;;;;10.60;1.90;;;8.80;74.70;;;;;;4992471;28;20042;-87
2022/01/30 12:47:56;;;;;;;19.33;3.83;;;8.90;74.00;;;;;;4976795;28;20046;-84
2022/01/30 12:50:33;;;;;;;9.68;1.50;;;8.80;72.90;;;;;;4992334;28;20406;-85
2022/01/30 12:53:02;;;;;;;10.38;1.67;;;8.90;73.80;;;;;;4993569;28;20046;-85
2022/01/30 12:55:30;;;;;;;7.70;1.52;;;8.90;74.10;;;;;;4992250;28;20441;-83
2022/01/30 12:58:01;;;;;;;8.23;1.58;;;8.80;73.20;;;;;;4992880;28;20062;-84
2022/01/30 13:00:29;;;;;;;9.68;1.45;;;8.70;73.50;;;;;;4993452;28;20050;-89
2022/01/30 13:03:00;;;;;;;7.30;1.40;;;8.60;73.70;;;;;;4993267;28;20082;-91
2022/01/30 13:05:31;;;;;;;6.70;1.02;;;8.60;74.20;;;;;;4992945;28;20100;-83
2022/01/30 13:07:59;;;;;;;9.25;1.08;;;8.60;74.30;;;;;;4993264;28;20120;-91
2022/01/30 13:10:27;;;;;;;9.52;1.52;;;8.70;74.20;;;;;;4993229;28;20065;-85
2022/01/30 13:12:57;;;;;;;6.50;1.08;;;8.80;73.80;;;;;;4991855;28;20142;-83
2022/01/30 13:15:27;;;;;;;5.18;1.35;;;8.80;74.00;;;;;;4992526;28;20137;-85
2022/01/30 13:17:58;;;;;;;7.30;0.90;;;8.80;74.20;;;;;;4992346;28;20042;-81
2022/01/30 13:20:27;;;;;;;7.38;1.40;;;8.80;74.20;;;;;;4992008;28;20105;-83
2022/01/30 13:22:55;;;;;;;11.95;1.40;;;8.70;74.40;;;;;;4944092;28;20586;-84
2022/01/30 13:25:23;;;;;;;11.27;2.15;;;8.70;73.90;;;;;;4992015;28;20145;-85
2022/01/30 13:27:52;;;;;;;18.38;2.50;;;8.60;73.10;;;;;;4992031;28;20050;-85
2022/01/30 13:30:25;;;;;;;11.23;2.72;;;8.50;72.60;;;;;;4992538;28;20053;-83
2022/01/30 13:32:56;;;;;;;14.75;2.88;;;8.50;71.90;;;;;;4991872;28;20128;-86
2022/01/30 13:35:25;;;;;;;16.80;2.75;;;8.60;72.00;;;;;;4988462;28;20052;-84
2022/01/30 13:37:55;;;;;;;10.50;2.45;;;8.60;71.40;;;;;;4964638;28;20047;-84
2022/01/30 13:40:25;;;;;;;8.50;1.75;;;8.60;72.00;;;;;;4992000;28;20038;-85
2022/01/30 13:48:21;;;;;;;10.60;1.30;;;8.40;72.50;;;;;;4992953;28;20061;-80
2022/01/30 13:51:03;;;;;;;9.38;1.70;;;8.30;72.80;;;;;;4975702;28;20046;-80
2022/01/30 13:53:33;;;;;;;5.18;0.88;;;8.20;73.00;;;;;;4975514;28;20042;-81
2022/01/30 13:56:13;;;;;;;11.05;1.90;;;8.20;73.20;;;;;;4975876;28;20085;-82
2022/01/30 13:58:41;;;;;;;10.07;1.52;;;8.10;72.70;;;;;;4994798;28;20085;-82
2022/01/30 14:01:13;;;;;;;11.05;1.90;;;8.10;72.20;;;;;;4979704;28;20089;-81
2022/01/30 14:04:11;;;;;;;10.60;1.48;;;8.10;72.50;;;;;;4996351;28;20046;-83
2022/01/30 14:06:46;;;;;;;8.18;1.48;;;8.10;72.40;;;;;;4995754;28;20061;-87
2022/01/30 14:09:25;;;;;;;10.68;1.23;;;8.10;72.50;;;;;;4995847;28;20065;-86
2022/01/30 14:12:10;;;;;;;6.13;1.13;;;8.10;72.60;;;;;;4996119;28;20062;-85
2022/01/30 14:15:25;;;;;;;5.60;1.38;;;8.10;72.50;;;;;;4983186;28;20046;-89
2022/01/30 14:18:20;;;;;;;8.98;1.92;;;8.10;72.60;;;;;;4995728;28;20108;-87
2022/01/30 14:21:14;;;;;;;12.88;1.90;;;8.20;71.90;;;;;;4985547;28;20041;-80
2022/01/30 14:23:45;;;;;;;16.60;1.90;;;8.20;71.40;;;;;;4998583;28;20053;-79
2022/01/30 14:26:39;;;;;;;9.32;1.30;;;8.30;71.30;;;;;;5014044;28;20529;-82
2022/01/30 14:29:12;;;;;;;10.40;1.42;;;8.40;71.50;;;;;;5011969;28;20453;-79